createdAt,value
2023-03-31T00:01:15.319Z,16.59
2023-03-31T00:03:44.520Z,16.19
2023-03-31T00:06:18.900Z,16.34
2023-03-31T00:08:51.637Z,16.56
2023-03-31T00:11:22.043Z,16.83
2023-03-31T00:13:50.702Z,16.67
2023-03-31T00:16:19.733Z,16.78
2023-03-31T00:18:51.044Z,16.79
2023-03-31T00:21:29.727Z,16.71
2023-03-31T00:24:04.558Z,16.70
2023-03-31T00:26:34.754Z,16.73
2023-03-31T00:29:05.412Z,16.70
2023-03-31T00:31:34.510Z,16.69
2023-03-31T00:34:03.060Z,16.88
2023-03-31T00:36:32.217Z,16.63
2023-03-31T00:39:08.243Z,16.43
2023-03-31T00:41:39.301Z,16.52
2023-03-31T00:44:22.915Z,16.47
2023-03-31T00:47:13.021Z,16.47
2023-03-31T00:49:45.636Z,16.24
2023-03-31T00:52:19.520Z,16.34
2023-03-31T00:54:58.736Z,16.47
2023-03-31T00:57:29.425Z,16.40
2023-03-31T01:00:12.659Z,16.51
2023-03-31T01:02:52.582Z,16.38
2023-03-31T01:05:26.716Z,16.19
2023-03-31T01:07:56.883Z,16.49
2023-03-31T01:10:25.945Z,16.78
2023-03-31T01:12:56.034Z,16.80
2023-03-31T01:15:24.517Z,16.63
2023-03-31T01:17:55.919Z,16.65
2023-03-31T01:20:48.378Z,16.53
2023-03-31T01:23:38.585Z,16.24
2023-03-31T01:26:50.761Z,15.93
2023-03-31T01:29:49.127Z,16.36
2023-03-31T01:32:48.239Z,16.37
2023-03-31T01:36:12.306Z,15.88
2023-03-31T01:39:01.197Z,16.06
2023-03-31T01:41:48.712Z,16.07
2023-03-31T01:44:26.162Z,16.14
2023-03-31T01:47:02.320Z,16.03
2023-03-31T01:49:42.126Z,16.02
2023-03-31T01:52:44.060Z,16.39
2023-03-31T01:55:19.670Z,16.50
2023-03-31T01:57:54.491Z,16.00
2023-03-31T02:00:29.984Z,16.22
2023-03-31T02:03:17.234Z,16.56
2023-03-31T02:06:12.579Z,16.74
2023-03-31T02:08:47.530Z,16.60
2023-03-31T02:11:16.877Z,16.52
2023-03-31T02:13:47.246Z,16.51
2023-03-31T02:16:24.585Z,16.46
2023-03-31T02:19:03.997Z,16.49
2023-03-31T02:21:34.687Z,16.33
2023-03-31T02:24:09.413Z,16.25
2023-03-31T02:26:49.407Z,16.44
2023-03-31T02:29:17.972Z,16.58
2023-03-31T02:31:52.798Z,16.53
2023-03-31T02:34:21.790Z,16.62
2023-03-31T02:36:50.728Z,16.63
2023-03-31T02:39:24.970Z,16.31
2023-03-31T02:41:54.642Z,16.19
2023-03-31T02:44:23.714Z,16.36
2023-03-31T02:46:52.647Z,16.40
2023-03-31T02:49:21.751Z,16.46
2023-03-31T02:52:15.859Z,16.55
2023-03-31T02:54:59.624Z,16.62
2023-03-31T02:57:41.625Z,16.54
2023-03-31T03:00:32.101Z,16.64
2023-03-31T03:03:16.515Z,16.63
2023-03-31T03:05:54.907Z,16.43
2023-03-31T03:08:37.702Z,16.50
2023-03-31T03:11:32.180Z,16.31
2023-03-31T03:14:21.238Z,16.42
2023-03-31T03:17:23.603Z,16.42
2023-03-31T03:19:58.818Z,16.47
2023-03-31T03:22:27.632Z,16.49
2023-03-31T03:24:56.292Z,16.34
2023-03-31T03:27:24.815Z,16.40
2023-03-31T03:29:53.218Z,16.34
2023-03-31T03:32:21.666Z,16.02
2023-03-31T03:34:50.230Z,16.04
2023-03-31T03:37:19.585Z,16.04
2023-03-31T03:39:48.140Z,16.06
2023-03-31T03:42:16.897Z,16.31
2023-03-31T03:44:45.414Z,16.24
2023-03-31T03:47:14.106Z,16.18
2023-03-31T03:49:42.672Z,16.27
2023-03-31T03:52:11.152Z,16.41
2023-03-31T03:54:39.571Z,16.30
2023-03-31T03:57:07.963Z,16.18
2023-03-31T03:59:36.406Z,16.25
2023-03-31T04:02:04.954Z,16.20
2023-03-31T04:04:33.637Z,16.29
2023-03-31T04:07:02.201Z,16.25
2023-03-31T04:09:30.923Z,16.19
2023-03-31T04:11:59.439Z,16.16
2023-03-31T04:14:27.915Z,16.21
2023-03-31T04:16:58.516Z,16.13
2023-03-31T04:19:27.602Z,16.25
2023-03-31T04:22:02.664Z,16.27
2023-03-31T04:24:32.790Z,16.16
2023-03-31T04:27:03.206Z,16.15
2023-03-31T04:29:33.617Z,16.11
2023-03-31T04:32:03.011Z,16.18
2023-03-31T04:34:37.415Z,16.10
2023-03-31T04:37:06.040Z,16.16
2023-03-31T04:39:34.719Z,16.24
2023-03-31T04:42:03.369Z,16.15
2023-03-31T04:44:31.817Z,16.29
2023-03-31T04:47:03.248Z,16.17
2023-03-31T04:49:33.685Z,15.89
2023-03-31T04:52:02.232Z,15.97
2023-03-31T04:54:30.776Z,16.01
2023-03-31T04:56:59.218Z,16.07
2023-03-31T04:59:27.735Z,15.99
2023-03-31T05:01:56.293Z,15.92
2023-03-31T05:04:24.844Z,15.80
2023-03-31T05:06:53.508Z,15.70
2023-03-31T05:09:22.158Z,15.84
2023-03-31T05:11:50.652Z,15.62
2023-03-31T05:14:19.482Z,15.43
2023-03-31T05:16:47.956Z,15.42
2023-03-31T05:19:18.318Z,15.13
2023-03-31T05:21:46.817Z,15.49
2023-03-31T05:24:15.272Z,15.67
2023-03-31T05:26:48.445Z,15.40
2023-03-31T05:29:16.874Z,15.67
2023-03-31T05:31:45.981Z,15.63
2023-03-31T05:34:15.823Z,15.61
2023-03-31T05:36:44.416Z,15.90
2023-03-31T05:39:12.791Z,15.80
2023-03-31T05:41:41.245Z,15.89
2023-03-31T05:44:09.736Z,15.93
2023-03-31T05:46:38.559Z,15.86
2023-03-31T05:49:08.158Z,15.90
2023-03-31T05:51:36.686Z,15.72
2023-03-31T05:54:06.429Z,15.90
2023-03-31T05:56:35.043Z,15.71
2023-03-31T05:59:05.234Z,15.69
2023-03-31T06:01:34.000Z,15.61
2023-03-31T06:04:02.546Z,15.77
2023-03-31T06:06:34.026Z,15.69
2023-03-31T06:09:05.070Z,15.40
2023-03-31T06:11:33.470Z,15.15
2023-03-31T06:14:01.892Z,14.37
2023-03-31T06:16:30.588Z,14.19
2023-03-31T06:18:59.180Z,14.93
2023-03-31T06:21:27.710Z,15.28
2023-03-31T06:23:58.152Z,15.28
2023-03-31T06:26:27.875Z,15.27
2023-03-31T06:28:56.469Z,15.26
2023-03-31T06:31:25.528Z,15.47
2023-03-31T06:33:54.053Z,15.65
2023-03-31T06:36:22.803Z,15.19
2023-03-31T06:38:51.435Z,15.48
2023-03-31T06:41:21.131Z,15.00
2023-03-31T06:43:50.023Z,15.44
2023-03-31T06:46:18.862Z,15.58
2023-03-31T06:48:47.421Z,14.95
2023-03-31T06:51:16.393Z,15.46
2023-03-31T06:53:44.883Z,15.61
2023-03-31T06:56:13.368Z,15.17
2023-03-31T06:58:41.914Z,15.21
2023-03-31T07:01:11.833Z,15.46
2023-03-31T07:03:40.875Z,15.46
2023-03-31T07:06:09.425Z,15.45
2023-03-31T07:08:37.910Z,15.83
2023-03-31T07:11:06.739Z,15.85
2023-03-31T07:13:35.524Z,15.54
2023-03-31T07:16:05.242Z,15.31
2023-03-31T07:18:35.660Z,15.87
2023-03-31T07:21:07.952Z,14.73
2023-03-31T07:23:38.077Z,15.28
2023-03-31T07:26:06.722Z,15.39
2023-03-31T07:28:35.343Z,15.11
2023-03-31T07:31:10.965Z,14.67
2023-03-31T07:33:39.782Z,14.65
2023-03-31T07:36:13.323Z,14.91
2023-03-31T07:38:46.755Z,14.25
2023-03-31T07:41:18.944Z,14.98
2023-03-31T07:43:47.622Z,15.25
2023-03-31T07:46:24.989Z,15.06
2023-03-31T07:48:54.902Z,15.41
2023-03-31T07:51:26.560Z,15.67
2023-03-31T07:53:55.181Z,15.89
2023-03-31T07:56:24.905Z,15.99
2023-03-31T07:58:56.076Z,16.26
2023-03-31T08:01:26.646Z,16.41
2023-03-31T08:03:56.101Z,16.62
2023-03-31T08:06:26.822Z,16.36
2023-03-31T08:08:56.218Z,16.50
2023-03-31T08:11:25.996Z,16.64
2023-03-31T08:13:54.619Z,16.75
2023-03-31T08:16:23.171Z,17.00
2023-03-31T08:18:51.668Z,16.93
2023-03-31T08:21:22.281Z,17.00
2023-03-31T08:23:53.574Z,17.26
2023-03-31T08:26:24.332Z,17.30
2023-03-31T08:28:53.896Z,17.29
2023-03-31T08:31:25.984Z,17.32
2023-03-31T08:33:56.063Z,17.31
2023-03-31T08:36:25.997Z,17.30
2023-03-31T08:38:54.773Z,17.03
2023-03-31T08:41:41.728Z,17.17
2023-03-31T08:44:16.500Z,17.02
2023-03-31T08:46:45.340Z,17.10
2023-03-31T08:49:16.941Z,17.20
2023-03-31T08:51:50.546Z,16.81
2023-03-31T08:54:32.880Z,16.70
2023-03-31T08:57:03.887Z,17.29
2023-03-31T08:59:37.565Z,16.83
2023-03-31T09:02:13.557Z,17.19
2023-03-31T09:05:12.912Z,17.69
2023-03-31T09:07:48.912Z,17.55
2023-03-31T09:10:35.962Z,17.20
2023-03-31T09:13:10.441Z,17.45
2023-03-31T09:16:02.596Z,17.55
2023-03-31T09:18:36.740Z,17.56
2023-03-31T09:21:13.220Z,16.70
2023-03-31T09:23:53.793Z,17.15
2023-03-31T09:26:27.498Z,17.10
2023-03-31T09:28:59.347Z,16.92
2023-03-31T09:31:28.555Z,17.49
2023-03-31T09:34:01.864Z,17.79
2023-03-31T09:36:30.862Z,17.10
2023-03-31T09:38:59.331Z,17.05
2023-03-31T09:41:27.880Z,17.38
2023-03-31T09:43:56.459Z,17.60
2023-03-31T09:46:30.941Z,17.64
2023-03-31T09:49:15.404Z,17.95
2023-03-31T09:51:52.872Z,18.34
2023-03-31T09:54:32.095Z,18.43
2023-03-31T09:57:00.688Z,17.92
2023-03-31T09:59:34.874Z,18.22
2023-03-31T10:02:28.476Z,17.89
2023-03-31T10:04:57.187Z,18.14
2023-03-31T10:07:26.399Z,18.36
2023-03-31T10:09:56.396Z,17.88
2023-03-31T10:12:29.224Z,17.00
2023-03-31T10:15:28.029Z,17.73
2023-03-31T10:17:58.646Z,18.08
2023-03-31T10:20:30.049Z,17.97
2023-03-31T10:23:03.311Z,17.46
2023-03-31T10:25:33.842Z,17.73
2023-03-31T10:28:03.146Z,18.24
2023-03-31T10:30:37.971Z,18.17
2023-03-31T10:33:23.161Z,17.38
2023-03-31T10:36:15.588Z,17.73
2023-03-31T10:38:48.180Z,16.65
2023-03-31T10:41:25.801Z,16.68
2023-03-31T10:43:56.604Z,17.55
2023-03-31T10:46:52.673Z,17.10
2023-03-31T10:49:21.183Z,17.62
2023-03-31T10:52:01.246Z,17.09
2023-03-31T10:54:29.708Z,16.78
2023-03-31T10:57:01.642Z,16.44
2023-03-31T10:59:47.912Z,17.30
2023-03-31T11:02:35.475Z,16.93
2023-03-31T11:05:22.569Z,17.90
2023-03-31T11:08:13.392Z,17.26
2023-03-31T11:10:58.855Z,17.43
2023-03-31T11:13:41.199Z,17.96
2023-03-31T11:16:19.293Z,18.20
2023-03-31T11:18:56.917Z,18.21
2023-03-31T11:21:52.288Z,17.66
2023-03-31T11:24:40.661Z,17.43
2023-03-31T11:27:44.660Z,18.01
2023-03-31T11:30:25.253Z,18.18
2023-03-31T11:33:02.811Z,17.70
2023-03-31T11:35:50.925Z,17.91
2023-03-31T11:38:48.062Z,17.70
2023-03-31T11:41:23.293Z,18.01
2023-03-31T11:43:55.815Z,17.48
2023-03-31T11:46:30.961Z,17.63
2023-03-31T11:49:06.560Z,16.98
2023-03-31T11:52:17.874Z,17.48
2023-03-31T11:54:48.973Z,16.75
2023-03-31T11:57:23.957Z,17.27
2023-03-31T12:00:06.450Z,17.82
2023-03-31T12:02:57.908Z,17.16
2023-03-31T12:05:30.660Z,17.25
2023-03-31T12:08:33.126Z,17.38
2023-03-31T12:11:13.318Z,17.62
2023-03-31T12:13:53.291Z,17.91
2023-03-31T12:16:46.234Z,16.84
2023-03-31T12:19:22.566Z,17.45
2023-03-31T12:22:14.402Z,17.76
2023-03-31T12:24:43.027Z,17.63
2023-03-31T12:27:33.606Z,17.19
2023-03-31T12:30:10.353Z,17.21
2023-03-31T12:32:48.869Z,17.65
2023-03-31T12:35:20.213Z,17.58
2023-03-31T12:38:00.096Z,17.07
2023-03-31T12:40:54.950Z,17.89
2023-03-31T12:43:43.839Z,18.14
2023-03-31T12:46:30.567Z,18.10
2023-03-31T12:49:17.859Z,18.17
2023-03-31T12:51:55.277Z,17.59
2023-03-31T12:54:48.822Z,18.08
2023-03-31T12:57:27.484Z,16.83
2023-03-31T13:00:12.183Z,17.63
2023-03-31T13:02:41.319Z,17.43
2023-03-31T13:05:37.961Z,17.89
2023-03-31T13:08:10.543Z,16.94
2023-03-31T13:10:59.215Z,17.82
2023-03-31T13:13:27.925Z,17.15
2023-03-31T13:15:59.791Z,17.92
2023-03-31T13:18:33.564Z,16.95
2023-03-31T13:21:08.304Z,17.70
2023-03-31T13:23:37.839Z,17.77
2023-03-31T13:26:06.954Z,17.91
2023-03-31T13:28:43.844Z,16.48
2023-03-31T13:31:14.690Z,16.94
2023-03-31T13:33:57.532Z,17.08
2023-03-31T13:36:32.431Z,17.38
2023-03-31T13:39:16.583Z,16.70
2023-03-31T13:41:53.495Z,16.64
2023-03-31T13:44:40.632Z,16.51
2023-03-31T13:47:35.076Z,16.20
2023-03-31T13:50:31.641Z,17.21
2023-03-31T13:53:27.968Z,17.22
2023-03-31T13:56:24.323Z,17.14
2023-03-31T13:59:30.009Z,17.02
2023-03-31T14:02:06.727Z,16.92
2023-03-31T14:04:41.113Z,17.45
2023-03-31T14:07:16.967Z,17.53
2023-03-31T14:09:52.056Z,17.16
2023-03-31T14:12:31.395Z,17.43
2023-03-31T14:15:00.322Z,16.90
2023-03-31T14:17:35.926Z,17.15
2023-03-31T14:20:22.945Z,17.15
2023-03-31T14:23:32.180Z,16.71
2023-03-31T14:26:34.621Z,17.18
2023-03-31T14:29:15.277Z,17.31
2023-03-31T14:32:03.225Z,16.89
2023-03-31T14:34:32.205Z,16.24
2023-03-31T14:37:04.696Z,16.11
2023-03-31T14:39:40.451Z,16.45
2023-03-31T14:42:15.892Z,16.31
2023-03-31T14:44:47.866Z,16.01
2023-03-31T14:47:21.963Z,16.36
2023-03-31T14:50:12.930Z,16.26
2023-03-31T14:52:50.062Z,16.45
2023-03-31T14:55:26.503Z,16.65
2023-03-31T14:58:02.951Z,16.00
2023-03-31T15:00:34.435Z,15.69
2023-03-31T15:03:07.743Z,15.50
2023-03-31T15:05:39.708Z,16.28
2023-03-31T15:08:14.140Z,16.30
2023-03-31T15:10:54.071Z,15.80
2023-03-31T15:13:33.967Z,15.83
2023-03-31T15:16:41.914Z,16.20
2023-03-31T15:19:18.798Z,17.04
2023-03-31T15:21:56.156Z,16.72
2023-03-31T15:24:24.761Z,16.73
2023-03-31T15:27:15.007Z,16.36
2023-03-31T15:29:51.149Z,16.40
2023-03-31T15:32:27.199Z,16.82
2023-03-31T15:35:02.443Z,16.82
2023-03-31T15:37:44.004Z,16.87
2023-03-31T15:40:24.464Z,16.25
2023-03-31T15:43:27.841Z,16.56
2023-03-31T15:45:58.668Z,16.19
2023-03-31T15:48:33.391Z,16.15
2023-03-31T15:51:20.807Z,16.89
2023-03-31T15:53:55.899Z,16.17
2023-03-31T15:56:44.457Z,16.04
2023-03-31T15:59:55.350Z,16.66
2023-03-31T16:02:29.057Z,15.96
2023-03-31T16:04:59.492Z,16.54
2023-03-31T16:07:34.680Z,16.50
2023-03-31T16:10:08.818Z,16.12
2023-03-31T16:12:49.201Z,16.52
2023-03-31T16:15:28.025Z,16.71
2023-03-31T16:18:10.079Z,16.19
2023-03-31T16:20:46.054Z,15.74
2023-03-31T16:23:18.097Z,16.44
2023-03-31T16:25:47.335Z,16.59
2023-03-31T16:28:21.950Z,16.82
2023-03-31T16:30:50.592Z,16.59
2023-03-31T16:33:23.087Z,16.29
2023-03-31T16:35:55.916Z,16.20
2023-03-31T16:38:26.650Z,15.91
2023-03-31T16:40:58.873Z,16.30
2023-03-31T16:43:29.008Z,16.27
2023-03-31T16:45:59.383Z,16.69
2023-03-31T16:48:30.058Z,16.05
2023-03-31T16:50:59.034Z,16.70
2023-03-31T16:53:36.105Z,15.78
2023-03-31T16:56:09.709Z,16.41
2023-03-31T16:58:38.984Z,15.73
2023-03-31T17:01:08.924Z,15.77
2023-03-31T17:03:39.720Z,16.06
2023-03-31T17:06:11.324Z,16.13
2023-03-31T17:08:40.368Z,16.48
2023-03-31T17:11:12.607Z,15.86
2023-03-31T17:13:42.570Z,15.86
2023-03-31T17:18:43.795Z,16.16
2023-03-31T17:21:14.862Z,16.21
2023-03-31T17:23:43.326Z,16.27
2023-03-31T17:26:13.054Z,16.23
2023-03-31T17:28:42.539Z,16.67
2023-03-31T17:31:20.503Z,16.66
2023-03-31T17:33:49.142Z,16.61
2023-03-31T17:36:17.837Z,16.43
2023-03-31T17:38:46.345Z,16.12
2023-03-31T17:41:15.612Z,16.34
2023-03-31T17:43:45.613Z,15.95
2023-03-31T17:46:14.219Z,15.61
2023-03-31T17:48:43.622Z,15.91
2023-03-31T17:51:18.267Z,15.15
2023-03-31T17:53:47.888Z,15.72
2023-03-31T17:56:17.606Z,15.13
2023-03-31T17:58:46.761Z,15.09
2023-03-31T18:01:15.421Z,15.60
2023-03-31T18:03:46.150Z,15.72
2023-03-31T18:06:15.339Z,15.76
2023-03-31T18:08:44.444Z,15.60
2023-03-31T18:11:13.387Z,15.55
2023-03-31T18:13:42.018Z,14.57
2023-03-31T18:16:12.725Z,15.60
2023-03-31T18:18:42.294Z,15.86
2023-03-31T18:21:13.108Z,15.78
2023-03-31T18:23:41.712Z,15.23
2023-03-31T18:26:12.429Z,15.22
2023-03-31T18:28:41.261Z,15.65
2023-03-31T18:31:10.633Z,15.02
2023-03-31T18:33:39.913Z,15.27
2023-03-31T18:36:15.243Z,15.61
2023-03-31T18:38:45.250Z,15.22
2023-03-31T18:41:14.892Z,15.62
2023-03-31T18:43:43.571Z,15.33
2023-03-31T18:46:11.984Z,15.11
2023-03-31T18:48:42.033Z,14.98
2023-03-31T18:51:11.064Z,15.22
2023-03-31T18:53:39.670Z,14.80
2023-03-31T18:56:08.106Z,14.98
2023-03-31T18:58:37.342Z,15.22
2023-03-31T19:01:05.965Z,14.79
2023-03-31T19:03:34.510Z,15.13
2023-03-31T19:06:10.214Z,15.04
2023-03-31T19:08:39.117Z,15.08
2023-03-31T19:11:13.125Z,15.68
2023-03-31T19:13:42.879Z,15.30
2023-03-31T19:16:13.129Z,15.71
2023-03-31T19:18:43.123Z,15.09
2023-03-31T19:21:11.969Z,15.06
2023-03-31T19:23:40.643Z,15.01
2023-03-31T19:26:13.437Z,15.04
2023-03-31T19:28:42.344Z,14.91
2023-03-31T19:31:11.240Z,15.38
2023-03-31T19:33:39.648Z,15.31
2023-03-31T19:36:08.252Z,14.83
2023-03-31T19:38:36.760Z,15.20
2023-03-31T19:41:05.954Z,14.81
2023-03-31T19:43:34.597Z,14.92
2023-03-31T19:46:03.481Z,14.84
2023-03-31T19:48:33.586Z,15.38
2023-03-31T19:51:06.268Z,15.13
2023-03-31T19:53:38.332Z,15.38
2023-03-31T19:56:12.766Z,15.22
2023-03-31T19:58:41.341Z,15.12
2023-03-31T20:01:27.330Z,15.40
2023-03-31T20:03:56.496Z,15.18
2023-03-31T20:06:28.442Z,15.14
2023-03-31T20:09:00.912Z,15.30
2023-03-31T20:11:31.978Z,14.98
2023-03-31T20:14:01.837Z,15.07
2023-03-31T20:16:31.232Z,14.82
2023-03-31T20:19:04.279Z,14.07
2023-03-31T20:21:35.652Z,14.55
2023-03-31T20:24:05.642Z,15.22
2023-03-31T20:26:34.790Z,15.07
2023-03-31T20:29:04.041Z,15.23
2023-03-31T20:31:37.391Z,14.96
2023-03-31T20:34:12.475Z,15.11
2023-03-31T20:36:43.226Z,15.10
2023-03-31T20:39:14.710Z,15.44
2023-03-31T20:41:43.600Z,14.68
2023-03-31T20:44:15.829Z,14.59
2023-03-31T20:46:45.019Z,15.03
2023-03-31T20:49:13.913Z,14.95
2023-03-31T20:51:42.649Z,15.16
2023-03-31T20:54:11.833Z,14.89
2023-03-31T20:56:41.354Z,15.07
2023-03-31T20:59:12.816Z,15.27
2023-03-31T21:01:42.537Z,14.50
2023-03-31T21:04:11.875Z,15.11
2023-03-31T21:06:43.775Z,14.60
2023-03-31T21:09:13.598Z,14.97
2023-03-31T21:11:42.139Z,14.54
2023-03-31T21:14:13.231Z,14.43
2023-03-31T21:16:41.734Z,14.65
2023-03-31T21:19:11.062Z,14.62
2023-03-31T21:21:41.193Z,14.69
2023-03-31T21:24:12.325Z,14.54
2023-03-31T21:26:40.789Z,14.49
2023-03-31T21:29:09.273Z,15.04
2023-03-31T21:31:38.007Z,14.65
2023-03-31T21:34:06.454Z,14.97
2023-03-31T21:36:34.998Z,14.99
2023-03-31T21:39:05.006Z,15.36
2023-03-31T21:41:33.567Z,14.63
2023-03-31T21:44:03.237Z,15.02
2023-03-31T21:46:33.506Z,14.92
2023-03-31T21:49:02.874Z,14.89
2023-03-31T21:51:31.480Z,14.72
2023-03-31T21:53:59.906Z,15.01
2023-03-31T21:56:31.844Z,15.07
2023-03-31T21:59:02.388Z,15.16
2023-03-31T22:01:31.494Z,14.44
2023-03-31T22:04:00.587Z,14.81
2023-03-31T22:06:29.395Z,14.82
2023-03-31T22:08:57.888Z,14.88
2023-03-31T22:11:27.027Z,14.65
2023-03-31T22:13:56.673Z,14.53
2023-03-31T22:16:25.286Z,14.69
2023-03-31T22:18:54.629Z,14.73
2023-03-31T22:21:25.490Z,14.77
2023-03-31T22:23:56.760Z,15.00
2023-03-31T22:26:27.060Z,14.79
2023-03-31T22:28:55.909Z,14.98
2023-03-31T22:31:26.313Z,14.43
2023-03-31T22:33:54.950Z,14.70
2023-03-31T22:36:23.371Z,14.96
2023-03-31T22:38:51.818Z,14.13
2023-03-31T22:41:20.502Z,14.56
2023-03-31T22:43:48.929Z,14.95
2023-03-31T22:46:17.334Z,15.02
2023-03-31T22:48:51.066Z,15.10
2023-03-31T22:51:19.588Z,14.43
2023-03-31T22:53:52.571Z,14.92
2023-03-31T22:56:23.021Z,14.61
2023-03-31T22:58:52.583Z,14.90
2023-03-31T23:01:21.829Z,14.84
2023-03-31T23:03:50.690Z,15.06
2023-03-31T23:06:19.212Z,15.10
2023-03-31T23:08:50.816Z,14.45
2023-03-31T23:11:19.385Z,15.09
2023-03-31T23:13:47.991Z,14.98
2023-03-31T23:16:18.047Z,15.05
2023-03-31T23:18:48.358Z,14.97
2023-03-31T23:21:19.514Z,14.48
2023-03-31T23:23:51.242Z,14.81
2023-03-31T23:26:21.270Z,14.56
2023-03-31T23:28:50.666Z,14.21
2023-03-31T23:31:22.175Z,14.98
2023-03-31T23:33:50.795Z,15.34
2023-03-31T23:36:21.202Z,14.82
2023-03-31T23:38:52.961Z,14.83
2023-03-31T23:41:22.685Z,14.50
2023-03-31T23:43:51.238Z,14.90
2023-03-31T23:46:19.775Z,14.73
2023-03-31T23:48:48.587Z,14.89
2023-03-31T23:51:18.783Z,14.23
2023-03-31T23:53:47.427Z,14.48
2023-03-31T23:56:15.846Z,14.34
2023-03-31T23:58:45.158Z,14.73
